Terminal Aerodrome Forecast
Issued by NWS Denver/Boulder, CO

Home | Current Version | Previous Version | Text Only | Print | Product List | Glossary On
Versions: 1 2 3 4 5 6 7 8 9 10 11 12 13 14 15 16 17 18 19 20 21 22 23 24 25 26 27 28 29 30 31 32 33 34 35 36 37 38 39 40
000
FTUS45 KBOU 222017 AAA
TAFDEN
TAF AMD
KDEN 222017Z 2220/2324 25004KT P6SM FEW120
     FM222100 24010KT P6SM VCTS SCT090CB BKN130
      TEMPO 2222/2301 VRB15G25KT BKN090CB
     FM230100 27010KT P6SM SCT090 BKN130
     FM230600 24008KT P6SM SCT130
     FM231700 02010KT P6SM FEW090 SCT130=

USA.gov is the U.S. government's official web portal to all federal, state and local government web resources and services.